This demonstration page uses our WeatherBlox Daily Observations layout. Learn more.

Left ArrowRight Arrow

Hourly Observations for October 19, 2016

Temp ( °F °C ) Dew Point ( °F °C ) Humidity (%) Winds ( mph kmh ) Pressure ( in mb ) Visibility ( mi km ) Precip ( " mm )
12:54 am 00:54 Clear 49 9.4 45 7.2 86 86 N 5 7 30.04 1017 10 16.0934 0 0
1:54 am 01:54 Hazy 54 12.2 46 7.8 75 75 NW 3 6 30.04 1017 5 8.0467 0 0
2:54 am 02:54 Clear 55 12.8 46 7.8 72 72 NNW 5 7 30.05 1018 9 14.48406 0 0
3:54 am 03:54 Clear 55 12.8 47 8.3 74 74 ENE 3 6 30.05 1018 10 16.0934 0 0
4:54 am 04:54 Clear 53 11.7 46 7.8 77 77 Calm 30.07 1018 10 16.0934 0 0
5:54 am 05:54 Clear 55 12.8 46 7.8 72 72 Calm 30.07 1018 10 16.0934 0 0
6:54 am 06:54 Clear 53 11.7 46 7.8 77 77 Calm 30.08 1019 10 16.0934 0 0
7:54 am 07:54 Sunny 52 11.1 47 8.3 83 83 Calm 30.1 1019 10 16.0934 0 0
8:54 am 08:54 Sunny 54 12.2 49 9.4 83 83 N 3 6 30.12 1020 10 16.0934 0 0
9:54 am 09:54 Hazy 57 13.9 50 10 78 78 NNW 7 11 30.13 1020 5 8.0467 0 0
10:54 am 10:54 Sunny 63 17.2 50 10 63 63 N 10 17 30.14 1021 10 16.0934 0 0
11:54 am 11:54 Sunny 68 20 49 9.4 51 51 ENE 7 11 30.14 1021 10 16.0934 0 0
12:54 pm 12:54 Sunny 70 21.1 46 7.8 42 42 N 6 9 30.12 1020 10 16.0934 0 0
1:54 pm 13:54 Mostly Sunny 71 21.7 48 8.9 44 44 NE 13 20 30.1 1019 10 16.0934 0 0
2:54 pm 14:54 Mostly Sunny 72 22.2 45 7.2 38 38 NE 14 22 30.08 1019 10 16.0934 0 0
3:54 pm 15:54 Partly Cloudy 69 20.6 46 7.8 44 44 NNE 13 20 30.1 1019 10 16.0934 0 0
4:54 pm 16:54 Partly Cloudy 67 19.4 44 6.7 44 44 N 20 31 30.1 1019 10 16.0934 0 0
5:54 pm 17:54 Partly Cloudy 64 17.8 43 6.1 46 46 NNE 15 24 30.13 1020 10 16.0934 0 0
6:54 pm 18:54 Partly Cloudy 61 16.1 43 6.1 52 52 NNE 18 30 30.16 1021 10 16.0934 0 0
7:54 pm 19:54 Partly Cloudy 58 14.4 45 7.2 62 62 N 17 28 30.2 1023 10 16.0934 0 0
8:54 pm 20:54 Mostly Clear 55 12.8 45 7.2 69 69 NNE 14 22 30.2 1023 10 16.0934 0 0
9:51 pm 21:51 Cloudy 55 13 45 7 67 67 NNW 18 30 30.24 1024 10 16.0934 0 0
9:54 pm 21:54 Cloudy 56 13.3 45 7.2 67 67 NNW 23 37 30.25 1024 10 16.0934 0 0
10:43 pm 22:43 Cloudy with Rain 50 10 48 8.9 93 93 NNE 14 22 30.3 1026 2.5 4.02335 0.12 3.048
10:51 pm 22:51 Cloudy with Rain 50 10 48 9 94 94 NE 13 20 30.3 1026 3 4.82802 0.16 4.064
10:54 pm 22:54 Cloudy with Rain 50 10 49 9.4 96 96 NE 14 22 30.26 1025 3 4.82802 0.17 4.318
11:54 pm 23:54 Cloudy 51 10.6 48 8.9 89 89 E 10 17 30.26 1025 10 16.0934 0.1 2.54

Powered by AerisWeather